Time;durP1;ratioP1;P1;durP2;ratioP2;P2;SDS_P1;SDS_P2;PMS_P1;PMS_P2;Temp;Humidity;BMP_temperature;BMP_pressure;BME280_temperature;BME280_humidity;BME280_pressure;Samples;Min_cycle;Max_cycle;Signal;HPM_P1;HPM_P2
2021/12/30 00:01:13;;;;;;;7.43;2.17;;;16.30;90.30;;;;;;5053075;28;20028;-46
2021/12/30 00:03:40;;;;;;;7.45;1.88;;;;;;;;;;5052813;28;20048;-47
2021/12/30 00:06:07;;;;;;;7.50;2.35;;;16.30;87.60;;;;;;5053014;28;20029;-47
2021/12/30 00:08:33;;;;;;;8.05;2.08;;;;;;;;;;5052905;28;20429;-46
2021/12/30 00:10:59;;;;;;;8.35;2.03;;;;;;;;;;5052953;28;20025;-47
2021/12/30 00:13:25;;;;;;;8.68;2.20;;;;;;;;;;5052844;28;20070;-48
2021/12/30 00:15:52;;;;;;;6.35;1.83;;;16.30;88.60;;;;;;5052733;28;20033;-47
2021/12/30 00:18:18;;;;;;;4.90;1.88;;;;;;;;;;5052681;28;20025;-48
2021/12/30 00:20:44;;;;;;;6.70;1.75;;;;;;;;;;5052629;28;20032;-48
2021/12/30 00:23:11;;;;;;;7.80;2.20;;;;;;;;;;5052565;28;20112;-48
2021/12/30 00:25:40;;;;;;;9.18;2.03;;;16.30;90.30;;;;;;5052903;28;20033;-48
2021/12/30 00:28:28;;;;;;;7.05;2.00;;;16.30;90.60;;;;;;5052679;28;20583;-48
2021/12/30 00:30:54;;;;;;;6.75;2.33;;;;;;;;;;5052451;28;20094;-46
2021/12/30 00:33:21;;;;;;;5.88;1.88;;;16.20;90.60;;;;;;5052518;28;20032;-46
2021/12/30 00:35:47;;;;;;;6.43;2.00;;;;;;;;;;5052500;28;20033;-46
2021/12/30 00:38:14;;;;;;;10.40;2.47;;;16.20;90.70;;;;;;5052132;28;20033;-47
2021/12/30 00:40:40;;;;;;;6.53;1.90;;;;;;;;;;5052378;28;20037;-46
2021/12/30 00:43:06;;;;;;;5.38;1.92;;;16.20;88.50;;;;;;5052289;28;20040;-46
2021/12/30 00:45:34;;;;;;;8.65;2.35;;;16.20;90.60;;;;;;5052311;28;20033;-46
2021/12/30 00:48:00;;;;;;;5.38;1.90;;;;;;;;;;5052400;28;20032;-46
2021/12/30 00:50:27;;;;;;;7.65;1.92;;;16.20;90.40;;;;;;5052198;28;20033;-49
2021/12/30 00:52:54;;;;;;;7.25;2.15;;;16.20;90.10;;;;;;5052239;28;20025;-49
2021/12/30 00:55:20;;;;;;;6.82;2.17;;;;;;;;;;5052502;28;20205;-48
2021/12/30 00:57:46;;;;;;;5.97;2.00;;;;;;;;;;5052127;28;20083;-48
2021/12/30 01:00:18;;;;;;;8.23;2.58;;;16.10;90.80;;;;;;5052089;28;20102;-49
2021/12/30 01:02:44;;;;;;;6.40;2.35;;;;;;;;;;5052037;28;20021;-48
2021/12/30 01:05:10;;;;;;;5.82;2.30;;;;;;;;;;5052161;28;20025;-48
2021/12/30 01:07:37;;;;;;;4.82;2.20;;;;;;;;;;5052022;28;20052;-48
2021/12/30 01:10:04;;;;;;;6.03;2.08;;;16.10;90.80;;;;;;5052113;28;20114;-48
2021/12/30 01:12:30;;;;;;;8.25;2.20;;;;;;;;;;5051941;28;20029;-49
2021/12/30 01:14:56;;;;;;;6.80;2.17;;;;;;;;;;5052202;28;20395;-48
2021/12/30 01:17:43;;;;;;;7.22;2.40;;;;;;;;;;5050823;28;20040;-48
2021/12/30 01:20:11;;;;;;;5.50;2.03;;;16.10;90.90;;;;;;5052333;28;20036;-49
2021/12/30 01:22:36;;;;;;;7.35;1.80;;;;;;;;;;5051930;28;20104;-49
2021/12/30 01:25:06;;;;;;;5.57;2.03;;;16.10;90.60;;;;;;5051878;28;20120;-46
2021/12/30 01:27:33;;;;;;;6.30;2.05;;;;;;;;;;5052257;28;20052;-46
2021/12/30 01:30:00;;;;;;;5.88;2.30;;;;;;;;;;5051899;28;20029;-47
2021/12/30 01:32:26;;;;;;;8.13;2.25;;;;;;;;;;5051899;28;20043;-46
2021/12/30 01:34:52;;;;;;;6.07;1.83;;;;;;;;;;5051780;28;20104;-47
2021/12/30 01:37:21;;;;;;;7.25;2.40;;;;;;;;;;5051859;28;20086;-46
2021/12/30 01:39:47;;;;;;;4.95;1.98;;;;;;;;;;5050467;28;20021;-47
2021/12/30 01:42:13;;;;;;;3.35;1.80;;;;;;;;;;5051740;28;20082;-46
2021/12/30 01:44:40;;;;;;;7.18;2.25;;;;;;;;;;5051616;28;20033;-46
2021/12/30 01:47:07;;;;;;;4.63;2.03;;;16.00;90.50;;;;;;5051981;28;20029;-46
2021/12/30 01:49:34;;;;;;;4.30;1.73;;;;;;;;;;5051846;28;20029;-47
2021/12/30 01:52:00;;;;;;;8.05;1.80;;;;;;;;;;5055446;28;20040;-47
2021/12/30 01:54:26;;;;;;;4.70;1.92;;;16.10;88.40;;;;;;5055482;28;20439;-47
2021/12/30 01:56:52;;;;;;;5.78;1.90;;;;;;;;;;5055380;28;20024;-47
2021/12/30 01:59:23;;;;;;;6.07;2.00;;;16.00;86.30;;;;;;5055605;28;20060;-45
2021/12/30 02:01:56;;;;;;;3.83;1.73;;;;;;;;;;5055199;28;20025;-47
2021/12/30 02:04:24;;;;;;;4.22;1.52;;;16.10;90.10;;;;;;5055120;28;20487;-47
2021/12/30 02:06:50;;;;;;;5.03;1.67;;;;;;;;;;5055499;28;20375;-47
2021/12/30 02:09:18;;;;;;;5.70;1.60;;;;;;;;;;5055259;28;20061;-48
2021/12/30 02:11:44;;;;;;;6.50;2.22;;;;;;;;;;5055399;28;20021;-46
2021/12/30 02:14:10;;;;;;;4.65;1.75;;;;;;;;;;5055164;28;20033;-47
2021/12/30 02:16:37;;;;;;;4.22;1.52;;;;;;;;;;5055101;28;20027;-46
2021/12/30 02:19:03;;;;;;;7.05;2.65;;;;;;;;;;5055111;28;20406;-46
2021/12/30 02:21:29;;;;;;;7.68;1.88;;;;;;;;;;5054987;28;20079;-47
2021/12/30 02:23:57;;;;;;;3.72;1.25;;;;;;;;;;5054870;28;20036;-46
2021/12/30 02:26:24;;;;;;;4.57;1.63;;;16.10;91.00;;;;;;5055153;28;20388;-46
2021/12/30 02:28:51;;;;;;;5.47;2.50;;;;;;;;;;5054762;28;20029;-46
2021/12/30 02:31:20;;;;;;;4.47;1.58;;;16.10;91.10;;;;;;5054798;28;20485;-45
2021/12/30 02:33:46;;;;;;;5.43;2.20;;;;;;;;;;5054766;28;20025;-46
2021/12/30 02:36:14;;;;;;;7.05;1.90;;;16.00;91.00;;;;;;5054631;28;20047;-46
2021/12/30 02:38:45;;;;;;;6.13;2.65;;;;;;;;;;5054759;28;20025;-46
2021/12/30 02:41:16;;;;;;;5.00;1.80;;;15.90;91.00;;;;;;5054936;28;20033;-46
2021/12/30 02:43:43;;;;;;;4.90;1.70;;;16.00;90.40;;;;;;5054477;28;20112;-46
2021/12/30 02:46:09;;;;;;;5.53;1.98;;;;;;;;;;5054524;28;20036;-46
2021/12/30 02:48:37;;;;;;;5.32;1.52;;;16.00;91.10;;;;;;5054458;28;20029;-46
2021/12/30 02:51:06;;;;;;;3.30;1.55;;;15.90;91.00;;;;;;5054417;28;20582;-46
2021/12/30 02:53:33;;;;;;;4.50;1.80;;;16.00;91.10;;;;;;5053041;28;20056;-46
2021/12/30 02:55:59;;;;;;;2.58;1.23;;;;;;;;;;5054615;28;20376;-46
2021/12/30 02:58:25;;;;;;;3.53;1.50;;;15.90;89.30;;;;;;5054389;28;20029;-46
2021/12/30 03:01:14;;;;;;;3.85;1.70;;;15.90;91.30;;;;;;5054135;28;20489;-46
2021/12/30 03:03:40;;;;;;;4.97;2.08;;;;;;;;;;5054003;28;20396;-46
2021/12/30 03:06:08;;;;;;;4.82;1.60;;;16.00;91.30;;;;;;5054118;28;20032;-46
2021/12/30 03:08:34;;;;;;;3.75;1.40;;;;;;;;;;5054115;28;20037;-46
2021/12/30 03:11:01;;;;;;;5.30;1.52;;;;;;;;;;5054278;28;20440;-46
2021/12/30 03:13:32;;;;;;;5.15;2.03;;;15.90;91.50;;;;;;5053953;28;20025;-47
2021/12/30 03:16:12;;;;;;;3.67;1.45;;;15.90;91.50;;;;;;5054298;28;20017;-48
2021/12/30 03:18:39;;;;;;;2.25;0.98;;;15.90;91.40;;;;;;5054023;28;20074;-48
2021/12/30 03:21:07;;;;;;;3.00;1.15;;;15.90;91.20;;;;;;5053785;28;20021;-48
2021/12/30 03:23:33;;;;;;;4.20;1.42;;;;;;;;;;5053657;28;20048;-48
2021/12/30 03:26:00;;;;;;;5.78;1.80;;;;;;;;;;5053795;28;20072;-48
2021/12/30 03:28:26;;;;;;;3.67;1.27;;;;;;;;;;5053674;28;20448;-48
2021/12/30 03:30:52;;;;;;;6.10;1.70;;;;;;;;;;5053669;28;20021;-48
2021/12/30 03:33:20;;;;;;;4.55;1.38;;;15.90;91.00;;;;;;5053625;28;20021;-47
2021/12/30 03:35:46;;;;;;;3.05;1.98;;;;;;;;;;5053750;28;20052;-48
2021/12/30 03:38:12;;;;;;;3.20;1.33;;;;;;;;;;5053746;28;20554;-48
2021/12/30 03:40:38;;;;;;;3.47;1.30;;;;;;;;;;5053461;28;20043;-48
2021/12/30 03:43:05;;;;;;;2.88;1.08;;;;;;;;;;5053334;28;20124;-48
2021/12/30 03:45:31;;;;;;;2.88;1.40;;;;;;;;;;5053331;28;20044;-48
2021/12/30 03:47:57;;;;;;;3.30;1.70;;;;;;;;;;5053570;28;20024;-49
2021/12/30 03:50:27;;;;;;;5.18;1.58;;;15.90;91.40;;;;;;5053257;28;20471;-49
2021/12/30 03:52:55;;;;;;;4.28;1.23;;;15.90;91.40;;;;;;5053329;28;20413;-48
2021/12/30 03:55:23;;;;;;;4.22;1.10;;;15.80;91.40;;;;;;5053100;28;20123;-49
2021/12/30 03:57:51;;;;;;;5.47;1.92;;;15.80;91.30;;;;;;5053153;28;20027;-48
2021/12/30 04:00:17;;;;;;;1.70;1.00;;;;;;;;;;5053036;28;20056;-46
2021/12/30 04:02:43;;;;;;;3.75;1.30;;;;;;;;;;5052823;28;20056;-48
2021/12/30 04:05:09;;;;;;;4.20;1.35;;;;;;;;;;5052995;28;20071;-49
2021/12/30 04:07:35;;;;;;;1.67;0.98;;;;;;;;;;5052974;28;20440;-48
2021/12/30 04:10:01;;;;;;;2.90;1.80;;;;;;;;;;5052983;28;20037;-49
2021/12/30 04:12:27;;;;;;;2.88;1.10;;;;;;;;;;5052696;28;20385;-46
2021/12/30 04:14:53;;;;;;;5.65;1.48;;;;;;;;;;5052869;28;20025;-46
2021/12/30 04:17:22;;;;;;;2.55;1.30;;;;;;;;;;5052777;28;20040;-46
2021/12/30 04:19:48;;;;;;;3.80;1.50;;;;;;;;;;5052772;28;20108;-46
2021/12/30 04:22:18;;;;;;;3.55;1.10;;;;;;;;;;5052750;28;20060;-46
2021/12/30 04:24:44;;;;;;;4.03;1.13;;;;;;;;;;5052625;28;20392;-46
2021/12/30 04:27:10;;;;;;;4.60;1.65;;;;;;;;;;5052608;28;20035;-46
2021/12/30 04:29:36;;;;;;;2.55;0.98;;;;;;;;;;5052621;28;20028;-49
2021/12/30 04:32:02;;;;;;;3.15;1.42;;;;;;;;;;5052584;28;20029;-48
2021/12/30 04:34:28;;;;;;;4.28;1.80;;;;;;;;;;5052503;28;20025;-47
2021/12/30 04:36:58;;;;;;;2.70;1.10;;;;;;;;;;5052467;28;20071;-48
2021/12/30 04:39:24;;;;;;;2.45;1.15;;;;;;;;;;5052724;28;20029;-48
2021/12/30 04:41:50;;;;;;;1.60;1.00;;;;;;;;;;5052469;28;20033;-47
2021/12/30 04:44:16;;;;;;;1.50;1.00;;;;;;;;;;5052307;28;20048;-47
2021/12/30 04:46:42;;;;;;;2.45;1.15;;;;;;;;;;5052379;28;20146;-47
2021/12/30 04:49:08;;;;;;;0.90;0.70;;;;;;;;;;5052704;28;20028;-48
2021/12/30 04:51:34;;;;;;;3.80;1.10;;;;;;;;;;5052282;28;20067;-47
2021/12/30 04:53:59;;;;;;;2.10;1.00;;;;;;;;;;5052262;28;20388;-48
2021/12/30 04:56:26;;;;;;;3.17;0.80;;;;;;;;;;5052195;28;20035;-50
2021/12/30 04:58:52;;;;;;;1.27;0.70;;;;;;;;;;5052228;28;20086;-49
2021/12/30 05:01:18;;;;;;;3.92;1.20;;;;;;;;;;5052181;28;20096;-47
2021/12/30 05:03:44;;;;;;;1.45;0.98;;;;;;;;;;5051869;28;20495;-49
2021/12/30 05:06:10;;;;;;;2.42;1.23;;;;;;;;;;5052211;28;20406;-46
2021/12/30 05:08:36;;;;;;;2.80;0.93;;;;;;;;;;5052147;28;20029;-46
2021/12/30 05:11:04;;;;;;;2.15;0.90;;;;;;;;;;5052043;28;20491;-46
2021/12/30 05:13:30;;;;;;;2.30;0.82;;;;;;;;;;5052062;28;20040;-47
2021/12/30 05:15:57;;;;;;;3.67;1.13;;;;;;;;;;5051997;28;20021;-46
2021/12/30 05:18:31;;;;;;;4.88;1.02;;;;;;;;;;5052268;28;20021;-46
2021/12/30 05:20:59;;;;;;;3.03;1.20;;;15.80;90.80;;;;;;5052038;28;20025;-46
2021/12/30 05:23:25;;;;;;;3.35;1.10;;;;;;;;;;5051900;28;20029;-45
2021/12/30 05:25:51;;;;;;;2.20;0.90;;;;;;;;;;5054475;28;20491;-47
2021/12/30 05:28:17;;;;;;;2.78;0.90;;;;;;;;;;5055939;28;20071;-47
2021/12/30 05:30:43;;;;;;;1.77;0.90;;;;;;;;;;5056154;28;20025;-49
2021/12/30 05:33:09;;;;;;;1.83;0.77;;;;;;;;;;5055898;28;20055;-48
2021/12/30 05:35:35;;;;;;;2.15;0.88;;;;;;;;;;5055819;28;20033;-49
2021/12/30 05:38:02;;;;;;;1.65;0.80;;;;;;;;;;5055842;28;20499;-48
2021/12/30 05:40:28;;;;;;;3.25;0.70;;;;;;;;;;5056018;28;20100;-47
2021/12/30 05:42:54;;;;;;;1.70;1.02;;;;;;;;;;5055678;28;20060;-48
2021/12/30 05:45:21;;;;;;;1.60;0.88;;;15.80;90.30;;;;;;5055740;28;20452;-50
2021/12/30 05:47:48;;;;;;;2.00;1.02;;;15.70;91.00;;;;;;5055587;28;20029;-49
2021/12/30 05:50:23;;;;;;;3.17;0.70;;;15.80;86.30;;;;;;5055619;28;20051;-51
2021/12/30 05:52:49;;;;;;;2.50;0.90;;;;;;;;;;5055386;28;20040;-48
2021/12/30 05:55:16;;;;;;;2.72;0.80;;;15.80;90.60;;;;;;5055476;28;20033;-48
2021/12/30 05:57:43;;;;;;;1.27;0.80;;;15.80;89.50;;;;;;5055421;28;20087;-49
2021/12/30 06:00:11;;;;;;;1.80;1.02;;;15.70;91.00;;;;;;5055388;28;20037;-48
2021/12/30 06:02:37;;;;;;;3.33;1.05;;;;;;;;;;5055118;28;20017;-48
2021/12/30 06:05:04;;;;;;;1.65;0.70;;;;;;;;;;5055241;28;20044;-48
2021/12/30 06:07:30;;;;;;;2.22;0.75;;;;;;;;;;5055260;28;20104;-48
2021/12/30 06:09:56;;;;;;;3.47;0.98;;;;;;;;;;5055207;28;20037;-48
2021/12/30 06:12:21;;;;;;;1.25;0.85;;;;;;;;;;5055479;28;20029;-47
2021/12/30 06:14:47;;;;;;;1.02;0.60;;;;;;;;;;5055156;28;20090;-49
2021/12/30 06:17:15;;;;;;;1.40;0.75;;;;;;;;;;5055098;28;20096;-48
2021/12/30 06:19:42;;;;;;;1.13;0.50;;;;;;;;;;5055116;28;20028;-46
2021/12/30 06:22:08;;;;;;;2.33;0.57;;;;;;;;;;5055018;28;20075;-46
2021/12/30 06:24:34;;;;;;;1.52;0.77;;;;;;;;;;5054927;28;20104;-47
2021/12/30 06:27:00;;;;;;;2.53;1.10;;;;;;;;;;5054855;28;20036;-46
2021/12/30 06:29:26;;;;;;;1.65;0.65;;;;;;;;;;5054861;28;20036;-46
2021/12/30 06:31:52;;;;;;;1.48;0.60;;;;;;;;;;5054803;28;20032;-46
2021/12/30 06:34:18;;;;;;;0.98;0.73;;;;;;;;;;5054766;28;20024;-45
2021/12/30 06:36:44;;;;;;;2.10;0.93;;;;;;;;;;5054246;28;20025;-46
2021/12/30 06:39:10;;;;;;;2.58;0.73;;;;;;;;;;5054679;28;20124;-48
2021/12/30 06:41:36;;;;;;;2.38;0.93;;;;;;;;;;5054639;28;20029;-48
2021/12/30 06:44:02;;;;;;;1.38;0.70;;;;;;;;;;5054395;28;20063;-48
2021/12/30 06:46:28;;;;;;;1.27;0.63;;;;;;;;;;5054546;28;20036;-47
2021/12/30 06:48:54;;;;;;;2.40;0.68;;;;;;;;;;5054409;28;20029;-48
2021/12/30 06:51:26;;;;;;;1.75;0.85;;;;;;;;;;5054723;28;20025;-48
2021/12/30 06:53:54;;;;;;;1.60;0.57;;;;;;;;;;5054714;28;20029;-49
2021/12/30 06:56:20;;;;;;;2.08;0.57;;;;;;;;;;5054341;28;20040;-45
2021/12/30 06:58:46;;;;;;;2.35;0.90;;;;;;;;;;5054450;28;20037;-47
2021/12/30 07:01:13;;;;;;;2.75;0.70;;;;;;;;;;5054239;28;20039;-47
2021/12/30 07:03:39;;;;;;;4.03;0.82;;;;;;;;;;5053970;28;20049;-47
2021/12/30 07:06:05;;;;;;;2.22;0.60;;;;;;;;;;5054137;28;20135;-46
2021/12/30 07:08:31;;;;;;;1.15;0.65;;;;;;;;;;5054158;28;20365;-45
2021/12/30 07:10:57;;;;;;;1.70;0.40;;;;;;;;;;5054067;28;20083;-46
2021/12/30 07:13:23;;;;;;;1.70;0.77;;;;;;;;;;5054096;28;20107;-45
2021/12/30 07:15:49;;;;;;;1.60;0.80;;;;;;;;;;5054008;28;20029;-46
2021/12/30 07:18:15;;;;;;;2.50;0.45;;;;;;;;;;5054194;28;20057;-46
2021/12/30 07:20:41;;;;;;;1.45;0.70;;;;;;;;;;5053894;28;20025;-47
2021/12/30 07:23:07;;;;;;;1.42;0.75;;;;;;;;;;5053672;28;20086;-46
2021/12/30 07:25:33;;;;;;;1.23;0.60;;;;;;;;;;5053845;28;20037;-46
2021/12/30 07:28:01;;;;;;;3.55;1.02;;;;;;;;;;5053772;28;20495;-46
2021/12/30 07:30:27;;;;;;;0.95;0.77;;;;;;;;;;5053981;28;20098;-48
2021/12/30 07:32:53;;;;;;;1.23;0.57;;;;;;;;;;5053636;28;20091;-46
2021/12/30 07:35:20;;;;;;;0.85;0.55;;;16.80;90.20;;;;;;5053605;28;20061;-48
2021/12/30 07:37:48;;;;;;;1.02;0.50;;;16.90;90.20;;;;;;5053590;28;20402;-49
2021/12/30 07:40:14;;;;;;;1.60;0.55;;;;;;;;;;5053521;28;20021;-47
2021/12/30 07:42:40;;;;;;;1.00;0.50;;;;;;;;;;5053497;28;20075;-49
2021/12/30 07:45:06;;;;;;;1.05;0.52;;;;;;;;;;5053365;28;20094;-47
2021/12/30 07:47:32;;;;;;;5.18;0.70;;;;;;;;;;5052465;28;20616;-48
2021/12/30 07:49:58;;;;;;;3.45;0.50;;;;;;;;;;5053300;28;20087;-49
2021/12/30 07:52:24;;;;;;;2.00;0.85;;;;;;;;;;5053327;28;20029;-47
2021/12/30 07:54:50;;;;;;;0.85;0.50;;;;;;;;;;5053282;28;20419;-48
2021/12/30 07:57:20;;;;;;;3.13;0.90;;;17.50;87.40;;;;;;5052792;28;20041;-47
2021/12/30 07:59:46;;;;;;;;;;;17.60;89.60;;;;;;5053558;28;20487;-49
2021/12/30 08:02:12;;;;;;;0.95;0.40;;;;;;;;;;5052974;28;19906;-48
2021/12/30 08:04:38;;;;;;;2.42;0.52;;;;;;;;;;5052797;28;20060;-48
2021/12/30 08:07:04;;;;;;;4.80;0.90;;;;;;;;;;5051668;28;20029;-48
2021/12/30 08:09:30;;;;;;;2.38;0.93;;;;;;;;;;5052985;28;20028;-47
2021/12/30 08:11:56;;;;;;;1.65;0.50;;;;;;;;;;5053043;28;20388;-48
2021/12/30 08:14:22;;;;;;;2.15;0.80;;;;;;;;;;5052893;28;20108;-47
2021/12/30 08:16:48;;;;;;;2.83;0.60;;;;;;;;;;5052873;28;20028;-49
2021/12/30 08:19:14;;;;;;;3.58;0.70;;;;;;;;;;5052815;28;20024;-49
2021/12/30 08:21:42;;;;;;;3.45;0.50;;;;;;;;;;5052823;28;20601;-48
2021/12/30 08:24:12;;;;;;;4.75;0.80;;;18.60;86.90;;;;;;5052861;28;20048;-48
2021/12/30 08:26:39;;;;;;;1.77;0.60;;;18.80;85.90;;;;;;5052720;28;20053;-47
2021/12/30 08:29:05;;;;;;;3.70;0.82;;;;;;;;;;5052744;28;20025;-48
2021/12/30 08:31:33;;;;;;;2.40;0.70;;;18.80;86.40;;;;;;5052875;28;20033;-49
2021/12/30 08:33:59;;;;;;;3.08;0.73;;;;;;;;;;5052543;28;20047;-49
2021/12/30 08:36:25;;;;;;;2.58;0.68;;;;;;;;;;5052496;28;20025;-48
2021/12/30 08:38:51;;;;;;;2.55;0.95;;;;;;;;;;5052419;28;20111;-48
2021/12/30 08:41:17;;;;;;;4.95;1.38;;;;;;;;;;5052406;28;20025;-46
2021/12/30 08:43:43;;;;;;;3.72;0.73;;;;;;;;;;5052254;28;20072;-48
2021/12/30 08:46:09;;;;;;;3.45;0.90;;;;;;;;;;5052347;28;20072;-49
2021/12/30 08:48:37;;;;;;;4.43;0.77;;;;;;;;;;5052373;28;20471;-46
2021/12/30 08:51:03;;;;;;;3.83;0.98;;;;;;;;;;5052547;28;20181;-46
2021/12/30 08:53:29;;;;;;;2.00;0.80;;;;;;;;;;5052284;28;20029;-46
2021/12/30 08:55:55;;;;;;;3.22;1.00;;;;;;;;;;5052167;28;20459;-46
2021/12/30 08:58:21;;;;;;;6.97;1.02;;;;;;;;;;5052129;28;20104;-46
2021/12/30 09:00:47;;;;;;;1.63;0.60;;;;;;;;;;5052161;28;20069;-46
2021/12/30 09:03:16;;;;;;;2.85;0.80;;;19.30;85.80;;;;;;5051994;28;20044;-46
2021/12/30 09:05:42;;;;;;;3.50;0.95;;;;;;;;;;5052251;28;20021;-50
2021/12/30 09:08:09;;;;;;;2.28;0.88;;;;;;;;;;5052263;28;20147;-48
2021/12/30 09:10:40;;;;;;;3.38;0.93;;;19.20;84.20;;;;;;5052066;28;20467;-47
2021/12/30 09:13:07;;;;;;;1.85;0.80;;;;;;;;;;5052444;28;20466;-49
2021/12/30 09:15:34;;;;;;;1.95;0.70;;;;;;;;;;5051982;28;20059;-46
2021/12/30 09:18:01;;;;;;;5.43;1.48;;;;;;;;;;5051999;28;20030;-47
2021/12/30 09:20:27;;;;;;;2.28;0.88;;;;;;;;;;5052302;28;20039;-47
2021/12/30 09:22:54;;;;;;;4.43;1.00;;;19.40;83.00;;;;;;5051955;28;20457;-47
2021/12/30 09:25:23;;;;;;;1.85;0.75;;;19.10;83.80;;;;;;5052026;28;20369;-50
2021/12/30 09:27:49;;;;;;;3.03;0.88;;;;;;;;;;5051982;28;20467;-49
2021/12/30 09:30:16;;;;;;;3.28;1.02;;;19.40;85.30;;;;;;5051987;28;20071;-47
2021/12/30 09:32:43;;;;;;;5.22;1.15;;;19.50;85.80;;;;;;5051864;28;20407;-48
2021/12/30 09:35:10;;;;;;;2.90;1.20;;;;;;;;;;5051840;28;20166;-48
2021/12/30 09:37:36;;;;;;;4.43;0.70;;;;;;;;;;5051843;28;20504;-48
2021/12/30 09:40:02;;;;;;;4.25;1.13;;;;;;;;;;5051881;28;20060;-47
2021/12/30 09:42:28;;;;;;;5.10;1.13;;;;;;;;;;5051912;28;20032;-48
2021/12/30 09:44:54;;;;;;;6.13;1.40;;;;;;;;;;5051787;28;20037;-48
2021/12/30 09:47:21;;;;;;;7.55;1.55;;;;;;;;;;5052093;28;20210;-48
2021/12/30 09:49:50;;;;;;;6.97;1.10;;;;;;;;;;5051815;28;20064;-48
2021/12/30 09:52:16;;;;;;;11.02;1.85;;;;;;;;;;5051787;28;20429;-46
2021/12/30 09:54:42;;;;;;;5.65;1.50;;;;;;;;;;5051735;28;20502;-47
2021/12/30 09:57:08;;;;;;;4.63;0.80;;;;;;;;;;5051694;28;20033;-47
2021/12/30 09:59:34;;;;;;;5.07;1.10;;;;;;;;;;5051661;28;20225;-48
2021/12/30 10:02:00;;;;;;;10.50;1.25;;;;;;;;;;5051637;28;20102;-47
2021/12/30 10:04:32;;;;;;;9.00;1.42;;;19.80;78.50;;;;;;5051466;28;20084;-48
2021/12/30 10:06:58;;;;;;;10.88;1.25;;;19.90;84.10;;;;;;5051757;28;20103;-47
2021/12/30 10:09:39;;;;;;;5.97;1.25;;;19.80;84.50;;;;;;5051555;28;20391;-49
2021/12/30 10:12:05;;;;;;;5.10;1.25;;;;;;;;;;5054080;28;20099;-47
2021/12/30 10:14:34;;;;;;;3.80;1.17;;;19.90;84.50;;;;;;5055155;28;20108;-49
2021/12/30 10:17:21;;;;;;;4.72;1.35;;;19.90;78.50;;;;;;5055329;28;20213;-50
2021/12/30 10:19:47;;;;;;;4.97;1.40;;;19.90;82.30;;;;;;5055073;28;20047;-46
2021/12/30 10:22:16;;;;;;;5.13;1.63;;;20.00;84.40;;;;;;5055097;28;20100;-46
2021/12/30 10:24:43;;;;;;;4.35;1.10;;;19.90;84.40;;;;;;5054913;28;20091;-45
2021/12/30 10:27:09;;;;;;;5.30;1.00;;;;;;;;;;5054903;28;20025;-47
2021/12/30 10:29:42;;;;;;;6.32;1.55;;;19.90;78.20;;;;;;5054929;28;20036;-46
2021/12/30 10:32:20;;;;;;;5.10;1.30;;;20.00;78.20;;;;;;5054834;28;20029;-46
2021/12/30 10:35:11;;;;;;;3.30;1.58;;;20.10;78.20;;;;;;5054794;28;20025;-45
2021/12/30 10:37:41;;;;;;;4.50;1.00;;;20.10;84.20;;;;;;5054786;28;20033;-49
2021/12/30 10:40:32;;;;;;;3.80;1.08;;;20.10;84.20;;;;;;5054793;28;20120;-48
2021/12/30 10:43:18;;;;;;;;;;;20.10;79.00;;;;;;5055120;28;20025;-47
2021/12/30 10:46:19;;;;;;;2.28;1.00;;;20.20;84.00;;;;;;5054607;28;20001;-48
2021/12/30 10:48:48;;;;;;;4.93;1.23;;;20.20;84.10;;;;;;5054532;28;20091;-47
2021/12/30 10:51:19;;;;;;;3.53;1.05;;;20.30;77.80;;;;;;5054501;28;20036;-47
2021/12/30 10:53:44;;;;;;;;;;;20.30;84.60;;;;;;5054806;28;20028;-48
2021/12/30 10:56:21;;;;;;;6.20;1.52;;;20.20;77.80;;;;;;5054650;28;19909;-48
2021/12/30 10:58:47;;;;;;;3.85;1.20;;;;;;;;;;5054302;28;20037;-48
2021/12/30 11:01:16;;;;;;;3.35;1.20;;;20.30;83.90;;;;;;5054163;28;20029;-48
2021/12/30 11:03:42;;;;;;;3.90;1.40;;;;;;;;;;5053981;28;20048;-47
2021/12/30 11:06:19;;;;;;;3.00;0.98;;;20.30;77.60;;;;;;5054208;28;20033;-47
2021/12/30 11:08:49;;;;;;;3.67;1.10;;;20.40;83.50;;;;;;5054181;28;20546;-47
2021/12/30 11:11:29;;;;;;;3.58;0.88;;;20.40;77.60;;;;;;5054431;28;20359;-46
2021/12/30 11:13:58;;;;;;;2.80;0.77;;;20.40;77.60;;;;;;5054341;28;20032;-47
2021/12/30 11:16:24;;;;;;;5.30;1.30;;;;;;;;;;5054144;28;20029;-46
2021/12/30 11:18:50;;;;;;;4.00;1.23;;;;;;;;;;5053966;28;20116;-46
2021/12/30 11:21:36;;;;;;;2.58;1.13;;;20.40;77.30;;;;;;5053923;28;20495;-45
2021/12/30 11:24:03;;;;;;;4.60;1.35;;;20.50;81.90;;;;;;5053654;28;20479;-46
2021/12/30 11:26:29;;;;;;;3.35;1.33;;;;;;;;;;5053819;28;20108;-46
2021/12/30 11:28:55;;;;;;;3.08;1.02;;;20.60;83.00;;;;;;5053763;28;20036;-46
2021/12/30 11:31:21;;;;;;;3.03;1.23;;;;;;;;;;5053802;28;20387;-45
2021/12/30 11:33:47;;;;;;;3.70;1.15;;;;;;;;;;5053812;28;20033;-46
2021/12/30 11:36:13;;;;;;;3.90;1.30;;;;;;;;;;5053606;28;20033;-46
2021/12/30 11:38:39;;;;;;;4.10;1.10;;;;;;;;;;5053662;28;20036;-47
2021/12/30 11:41:05;;;;;;;3.47;0.80;;;;;;;;;;5053608;28;20032;-46
2021/12/30 11:43:43;;;;;;;3.75;1.50;;;20.50;77.20;;;;;;5053393;28;20096;-47
2021/12/30 11:46:44;;;;;;;7.10;1.35;;;20.50;77.30;;;;;;5053356;28;20027;-46
2021/12/30 11:49:14;;;;;;;4.38;1.27;;;20.40;80.10;;;;;;5053421;28;20025;-46
2021/12/30 11:51:47;;;;;;;5.00;1.27;;;20.20;80.40;;;;;;5054024;28;20021;-48
2021/12/30 11:54:35;;;;;;;2.35;0.98;;;20.30;94.60;;;;;;5053364;28;20029;-47
2021/12/30 11:57:27;;;;;;;3.15;0.88;;;20.30;94.60;;;;;;5053526;28;20107;-51
2021/12/30 11:59:57;;;;;;;3.15;0.75;;;19.60;94.40;;;;;;5052011;28;20104;-49
2021/12/30 12:02:35;;;;;;;4.00;1.48;;;20.20;94.50;;;;;;5053019;28;20036;-50
2021/12/30 12:05:39;;;;;;;4.90;1.23;;;20.20;91.90;;;;;;5052664;28;20206;-48
2021/12/30 12:08:06;;;;;;;4.03;1.15;;;21.60;67.00;;;;;;5051098;28;20108;-47
2021/12/30 12:10:32;;;;;;;4.68;1.25;;;19.70;94.30;;;;;;5049978;28;20491;-48
2021/12/30 12:13:18;;;;;;;2.42;1.00;;;19.90;94.50;;;;;;5052295;28;20025;-47
2021/12/30 12:15:43;;;;;;;3.15;1.20;;;19.90;94.60;;;;;;5052381;28;20037;-48
2021/12/30 12:18:12;;;;;;;5.50;1.35;;;19.80;66.70;;;;;;5052397;28;20086;-48
2021/12/30 12:20:52;;;;;;;5.20;1.15;;;19.80;67.10;;;;;;5052523;28;20025;-47
2021/12/30 12:23:34;;;;;;;4.30;1.10;;;19.80;94.90;;;;;;5052480;28;20487;-48
2021/12/30 12:26:18;;;;;;;7.88;1.40;;;19.50;62.50;;;;;;5052651;28;20033;-48
2021/12/30 12:28:45;;;;;;;2.95;1.10;;;19.60;67.90;;;;;;5052665;28;20060;-48
2021/12/30 12:31:11;;;;;;;4.00;1.40;;;19.50;68.50;;;;;;5052491;28;20037;-46
2021/12/30 12:33:39;;;;;;;4.72;1.73;;;19.60;95.90;;;;;;5052002;28;20147;-47
2021/12/30 12:36:15;;;;;;;10.00;1.90;;;20.10;64.60;;;;;;5052418;28;20036;-48
2021/12/30 12:38:44;;;;;;;3.00;1.40;;;18.90;70.50;;;;;;5052436;28;20121;-46
2021/12/30 12:41:31;;;;;;;4.85;1.90;;;19.70;97.00;;;;;;5052318;28;20021;-47
2021/12/30 12:44:06;;;;;;;2.50;1.10;;;19.20;97.20;;;;;;5052199;28;20037;-48
2021/12/30 12:46:46;;;;;;;5.13;1.63;;;19.40;66.70;;;;;;5052555;28;20021;-46
2021/12/30 12:49:12;;;;;;;;;;;19.60;72.80;;;;;;5052539;28;20383;-47
2021/12/30 12:51:53;;;;;;;3.58;1.63;;;19.20;74.00;;;;;;5052043;28;19904;-48
2021/12/30 12:54:45;;;;;;;7.60;1.85;;;19.30;68.30;;;;;;5052149;28;20082;-48
2021/12/30 12:57:17;;;;;;;5.43;1.95;;;19.20;73.90;;;;;;5052198;28;20039;-47
2021/12/30 12:59:44;;;;;;;6.13;1.70;;;19.20;75.10;;;;;;5052198;28;20054;-47
2021/12/30 13:02:12;;;;;;;2.92;1.50;;;19.10;76.80;;;;;;5052128;28;20036;-48
2021/12/30 13:04:38;;;;;;;5.18;1.80;;;19.10;74.10;;;;;;5051929;28;20080;-47
2021/12/30 13:07:11;;;;;;;4.82;1.50;;;19.10;72.10;;;;;;5052230;28;20025;-48
2021/12/30 13:09:38;;;;;;;5.60;1.98;;;19.10;74.70;;;;;;5052112;28;20040;-47
2021/12/30 13:12:07;;;;;;;4.15;1.20;;;19.00;77.60;;;;;;5052071;28;20138;-46
2021/12/30 13:14:33;;;;;;;2.80;1.67;;;;;;;;;;5052034;28;20035;-47
2021/12/30 13:17:04;;;;;;;3.05;1.60;;;19.00;78.60;;;;;;5052251;28;20029;-48
2021/12/30 13:19:36;;;;;;;4.43;1.85;;;19.00;78.60;;;;;;5052030;28;20033;-47
2021/12/30 13:22:08;;;;;;;3.13;1.25;;;19.00;78.90;;;;;;5052298;28;20025;-48
2021/12/30 13:24:56;;;;;;;3.13;1.60;;;19.00;73.00;;;;;;5052218;28;20037;-48
2021/12/30 13:27:31;;;;;;;3.65;1.55;;;18.90;72.90;;;;;;5052179;28;20079;-48
2021/12/30 13:30:03;;;;;;;8.00;1.30;;;19.00;78.30;;;;;;5051939;28;20025;-47
2021/12/30 13:32:31;;;;;;;2.15;1.20;;;19.00;78.50;;;;;;5051708;28;20606;-47
2021/12/30 13:35:22;;;;;;;4.88;1.60;;;19.00;73.10;;;;;;5051919;28;20107;-47
2021/12/30 13:37:51;;;;;;;1.40;1.10;;;19.00;78.60;;;;;;5052072;28;20029;-47
2021/12/30 13:40:27;;;;;;;1.70;1.10;;;19.00;73.30;;;;;;5051811;28;20388;-46
2021/12/30 13:42:53;;;;;;;3.47;1.30;;;;;;;;;;5051925;28;20021;-48
2021/12/30 13:45:32;;;;;;;3.33;1.50;;;19.00;73.60;;;;;;5051704;28;20029;-48
2021/12/30 13:48:17;;;;;;;3.50;1.15;;;18.90;73.70;;;;;;5055759;28;20151;-48
2021/12/30 13:50:58;;;;;;;3.47;1.27;;;19.00;74.00;;;;;;5055615;28;20031;-48
2021/12/30 13:53:27;;;;;;;1.75;1.17;;;18.90;79.50;;;;;;5055635;28;20499;-47
2021/12/30 13:56:06;;;;;;;2.67;1.23;;;18.90;74.50;;;;;;5055510;28;20108;-47
2021/12/30 13:58:39;;;;;;;2.30;1.05;;;18.90;80.60;;;;;;5055510;28;20025;-47
2021/12/30 14:01:10;;;;;;;2.10;1.20;;;18.80;80.20;;;;;;5055322;28;20060;-47